createdAt,value
2022-11-18T00:20:46.862Z,98662.56
2022-11-18T00:21:49.525Z,98664.00
2022-11-18T00:22:51.614Z,98664.14
2022-11-18T00:23:54.305Z,98671.32
2022-11-18T00:24:57.459Z,98673.16
2022-11-18T00:26:07.267Z,98670.50
2022-11-18T00:27:09.417Z,98676.49
2022-11-18T00:28:11.773Z,98676.37
2022-11-18T00:29:14.226Z,98675.52
2022-11-18T00:30:17.203Z,98664.33
2022-11-18T00:31:19.736Z,98664.33
2022-11-18T00:32:22.111Z,98674.63
2022-11-18T00:33:24.184Z,98671.09
2022-11-18T00:34:27.076Z,98673.95
2022-11-18T00:35:29.146Z,98667.06
2022-11-18T00:36:33.520Z,98662.64
2022-11-18T00:37:35.708Z,98674.37
2022-11-18T00:38:38.605Z,98666.57
2022-11-18T00:39:40.989Z,98658.77
2022-11-18T00:40:43.573Z,98669.66
2022-11-18T00:42:47.896Z,98659.64
2022-11-18T00:43:50.014Z,98665.31
2022-11-18T00:45:54.559Z,98668.65
2022-11-18T00:49:05.151Z,98663.12
2022-11-18T00:51:16.492Z,98669.49
2022-11-18T00:52:18.659Z,98666.41
2022-11-18T00:53:22.109Z,98672.48
2022-11-18T00:54:24.587Z,98673.92
2022-11-18T00:55:27.125Z,98670.10
2022-11-18T00:56:29.922Z,98663.64
2022-11-18T00:57:32.591Z,98664.37
2022-11-18T00:58:35.300Z,98666.77
2022-11-18T00:59:38.927Z,98664.79
2022-11-18T01:00:42.228Z,98670.03
2022-11-18T01:03:50.730Z,98661.45
2022-11-18T01:05:55.706Z,98663.72
2022-11-18T01:06:57.923Z,98671.61
2022-11-18T01:08:03.143Z,98670.63
2022-11-18T01:09:07.167Z,98636.87
2022-11-18T01:10:11.006Z,98670.36
2022-11-18T01:11:14.532Z,98668.55
2022-11-18T01:12:17.141Z,98671.08
2022-11-18T01:13:21.295Z,98669.10
2022-11-18T01:14:26.041Z,98673.48
2022-11-18T01:15:28.750Z,98668.13
2022-11-18T01:16:31.773Z,98674.34
2022-11-18T01:17:33.956Z,98668.86
2022-11-18T01:18:38.087Z,98665.17
2022-11-18T01:19:41.861Z,98671.25
2022-11-18T01:20:45.008Z,98671.25
2022-11-18T01:21:47.253Z,98666.73
2022-11-18T01:22:50.351Z,98669.30
2022-11-18T01:23:52.733Z,98672.70
2022-11-18T01:24:54.918Z,98665.52
2022-11-18T01:25:58.001Z,98671.73
2022-11-18T01:27:00.790Z,98673.41
2022-11-18T01:28:03.666Z,98670.59
2022-11-18T01:29:06.030Z,98667.91
2022-11-18T01:30:10.171Z,98664.25
2022-11-18T01:31:14.340Z,98666.94
2022-11-18T01:32:24.344Z,98676.67
2022-11-18T01:33:20.727Z,98673.02
2022-11-18T01:34:22.840Z,98673.02
2022-11-18T01:35:24.826Z,98670.34
2022-11-18T01:36:27.438Z,98668.50
2022-11-18T01:37:30.173Z,98673.02
2022-11-18T01:38:32.786Z,98673.84
2022-11-18T01:39:35.428Z,98669.33
2022-11-18T01:40:38.600Z,98680.05
2022-11-18T01:41:40.623Z,98678.38
2022-11-18T01:42:43.280Z,98676.53
2022-11-18T01:45:14.211Z,98674.70
2022-11-18T01:46:16.850Z,98669.33
2022-11-18T01:47:19.387Z,98675.55
2022-11-18T01:49:39.384Z,98669.25
2022-11-18T01:50:45.280Z,98678.23
2022-11-18T01:51:49.532Z,98672.88
2022-11-18T01:52:52.657Z,98671.17
2022-11-18T01:53:57.601Z,98671.17
2022-11-18T01:55:05.867Z,98672.88
2022-11-18T01:56:12.698Z,98666.66
2022-11-18T01:57:16.158Z,98672.01
2022-11-18T01:59:36.950Z,98666.56
2022-11-18T02:00:39.787Z,98669.33
2022-11-18T02:01:42.136Z,98675.55
2022-11-18T02:02:46.190Z,98676.53
2022-11-18T02:03:49.703Z,98679.20
2022-11-18T02:04:52.411Z,98681.05
2022-11-18T02:05:55.303Z,98689.91
2022-11-18T02:06:58.904Z,98689.91
2022-11-18T02:08:01.451Z,98681.05
2022-11-18T02:09:03.823Z,98682.72
2022-11-18T02:10:07.558Z,98681.88
2022-11-18T02:11:10.937Z,98692.59
2022-11-18T02:12:13.723Z,98687.23
2022-11-18T02:13:16.063Z,98686.27
2022-11-18T02:14:26.226Z,98685.39
2022-11-18T02:15:50.644Z,98677.36
2022-11-18T02:17:08.794Z,98689.78
2022-11-18T02:18:33.131Z,98687.09
2022-11-18T02:19:48.324Z,98677.22
2022-11-18T02:20:50.996Z,98681.05
2022-11-18T02:22:12.080Z,98690.89
2022-11-18T02:23:30.378Z,98685.53
2022-11-18T02:24:45.185Z,98683.87
2022-11-18T02:25:54.227Z,98685.81
2022-11-18T02:27:19.539Z,98684.11
2022-11-18T02:30:04.936Z,98686.96
2022-11-18T02:31:29.219Z,98690.72
2022-11-18T02:32:33.670Z,98690.83
2022-11-18T02:33:51.727Z,98680.26
2022-11-18T02:35:04.130Z,98690.13
2022-11-18T02:37:29.739Z,98683.87
2022-11-18T02:38:38.829Z,98684.78
2022-11-18T02:39:53.761Z,98681.23
2022-11-18T02:41:11.457Z,98678.56
2022-11-18T02:42:14.147Z,98674.07
2022-11-18T02:43:22.521Z,98683.91
2022-11-18T02:44:25.229Z,98689.27
2022-11-18T02:45:27.969Z,98685.75
2022-11-18T02:46:32.300Z,98695.63
2022-11-18T02:47:34.593Z,98695.48
2022-11-18T02:48:39.031Z,98695.48
2022-11-18T02:49:44.618Z,98696.32
2022-11-18T02:50:59.865Z,98695.48
2022-11-18T02:52:04.010Z,98696.32
2022-11-18T02:53:07.421Z,98704.22
2022-11-18T02:54:10.150Z,98698.86
2022-11-18T02:55:13.265Z,98691.73
2022-11-18T02:56:15.720Z,98689.05
2022-11-18T02:57:18.083Z,98694.27
2022-11-18T02:58:20.316Z,98699.63
2022-11-18T02:59:22.875Z,98695.94
2022-11-18T03:00:25.235Z,98695.94
2022-11-18T03:01:31.609Z,98704.84
2022-11-18T03:02:48.423Z,98701.19
2022-11-18T03:03:50.691Z,98705.67
2022-11-18T03:04:55.116Z,98696.66
2022-11-18T03:06:10.856Z,98700.31
2022-11-18T03:07:19.193Z,98705.67
2022-11-18T03:08:23.213Z,98698.51
2022-11-18T03:09:36.520Z,98702.16
2022-11-18T03:10:42.923Z,98704.70
2022-11-18T03:12:11.510Z,98698.61
2022-11-18T03:13:20.157Z,98703.86
2022-11-18T03:16:04.877Z,98704.00
2022-11-18T03:17:20.551Z,98707.52
2022-11-18T03:18:29.719Z,98696.95
2022-11-18T03:19:47.690Z,98698.75
2022-11-18T03:20:52.768Z,98702.44
2022-11-18T03:21:59.835Z,98702.30
2022-11-18T03:23:12.104Z,98706.79
2022-11-18T03:24:17.824Z,98709.47
2022-11-18T03:25:29.901Z,98704.11
2022-11-18T03:26:36.051Z,98703.27
2022-11-18T03:27:52.104Z,98704.11
2022-11-18T03:29:03.512Z,98708.62
2022-11-18T03:30:09.428Z,98704.98
2022-11-18T03:31:16.220Z,98707.66
2022-11-18T03:32:21.796Z,98708.48
2022-11-18T03:33:25.262Z,98698.61
2022-11-18T03:34:33.671Z,98700.45
2022-11-18T03:35:37.443Z,98704.84
2022-11-18T03:36:41.495Z,98696.80
2022-11-18T03:37:44.286Z,98700.45
2022-11-18T03:38:55.504Z,98698.61
2022-11-18T03:40:01.430Z,98702.16
2022-11-18T03:41:04.312Z,98695.83
2022-11-18T03:42:10.688Z,98700.31
2022-11-18T03:43:15.013Z,98699.48
2022-11-18T03:44:26.570Z,98696.19
2022-11-18T03:45:34.965Z,98696.19
2022-11-18T03:48:09.164Z,98699.23
2022-11-18T03:50:27.215Z,98709.66
2022-11-18T03:51:32.653Z,98713.32
2022-11-18T03:52:35.935Z,98711.48
2022-11-18T03:53:40.252Z,98714.99
2022-11-18T03:54:42.766Z,98714.99
2022-11-18T03:55:52.415Z,98712.17
2022-11-18T03:56:57.560Z,98715.72
2022-11-18T03:58:09.207Z,98716.41
2022-11-18T03:59:18.399Z,98722.50
2022-11-18T04:00:22.355Z,98724.17
2022-11-18T04:02:38.544Z,98721.27
2022-11-18T04:03:41.552Z,98718.70
2022-11-18T04:04:43.881Z,98729.42
2022-11-18T04:05:47.138Z,98721.39
2022-11-18T04:06:52.297Z,98725.59
2022-11-18T04:07:59.346Z,98722.91
2022-11-18T04:09:05.003Z,98718.42
2022-11-18T04:11:34.395Z,98725.23
2022-11-18T04:12:46.135Z,98729.84
2022-11-18T04:13:49.263Z,98725.34
2022-11-18T04:14:52.122Z,98731.54
2022-11-18T04:15:54.896Z,98728.86
2022-11-18T04:16:58.009Z,98735.05
2022-11-18T04:18:00.394Z,98729.70
2022-11-18T04:19:06.179Z,98725.34
2022-11-18T04:21:22.342Z,98729.58
2022-11-18T04:22:27.080Z,98730.56
2022-11-18T04:23:29.303Z,98722.53
2022-11-18T04:24:32.371Z,98734.08
2022-11-18T04:25:35.649Z,98729.55
2022-11-18T04:26:38.211Z,98729.55
2022-11-18T04:27:40.296Z,98727.74
2022-11-18T04:28:42.701Z,98730.42
2022-11-18T04:29:46.051Z,98729.45
2022-11-18T04:30:48.287Z,98726.77
2022-11-18T04:31:50.428Z,98727.74
2022-11-18T04:32:52.490Z,98727.74
2022-11-18T04:33:54.569Z,98728.58
2022-11-18T04:34:56.816Z,98726.88
2022-11-18T04:35:59.164Z,98724.92
2022-11-18T04:37:01.334Z,98726.77
2022-11-18T04:38:04.964Z,98726.88
2022-11-18T04:39:07.592Z,98726.88
2022-11-18T04:40:11.258Z,98734.08
2022-11-18T04:41:13.523Z,98736.75
2022-11-18T04:42:15.962Z,98738.45
2022-11-18T04:43:19.998Z,98734.91
2022-11-18T04:44:25.823Z,98730.42
2022-11-18T04:45:27.854Z,98736.61
2022-11-18T04:46:30.054Z,98733.94
2022-11-18T04:47:32.117Z,98741.97
2022-11-18T04:48:34.436Z,98741.83
2022-11-18T04:49:36.396Z,98739.16
2022-11-18T04:50:38.963Z,98744.52
2022-11-18T04:51:41.628Z,98743.67
2022-11-18T04:52:43.723Z,98751.84
2022-11-18T04:53:46.153Z,98747.33
2022-11-18T04:54:48.357Z,98755.50
2022-11-18T04:55:50.413Z,98754.53
2022-11-18T04:56:54.559Z,98752.83
2022-11-18T04:57:56.677Z,98756.34
2022-11-18T04:58:59.555Z,98755.36
2022-11-18T05:00:01.695Z,98758.19
2022-11-18T05:01:03.812Z,98753.80
2022-11-18T05:02:07.068Z,98753.80
2022-11-18T05:03:09.255Z,98752.97
2022-11-18T05:04:12.637Z,98756.48
2022-11-18T05:05:15.883Z,98757.88
2022-11-18T05:06:18.086Z,98757.88
2022-11-18T05:07:20.493Z,98769.03
2022-11-18T05:08:23.248Z,98768.34
2022-11-18T05:09:31.337Z,98769.17
2022-11-18T05:10:29.683Z,98776.38
2022-11-18T05:11:31.876Z,98772.83
2022-11-18T05:12:34.134Z,98775.50
2022-11-18T05:13:36.252Z,98781.73
2022-11-18T05:14:38.447Z,98780.86
2022-11-18T05:15:41.310Z,98779.05
2022-11-18T05:16:44.047Z,98779.88
2022-11-18T05:17:46.921Z,98781.73
2022-11-18T05:18:49.157Z,98779.88
2022-11-18T05:19:51.493Z,98781.73
2022-11-18T05:20:54.561Z,98785.24
2022-11-18T05:21:57.613Z,98789.77
2022-11-18T05:22:59.625Z,98784.41
2022-11-18T05:24:01.695Z,98786.22
2022-11-18T05:25:04.756Z,98779.05
2022-11-18T05:26:08.545Z,98784.41
2022-11-18T05:27:11.227Z,98783.53
2022-11-18T05:28:13.197Z,98776.89
2022-11-18T05:29:16.739Z,98776.89
2022-11-18T05:30:19.151Z,98790.73
2022-11-18T05:31:21.724Z,98792.55
2022-11-18T05:32:23.821Z,98792.55
2022-11-18T05:33:25.826Z,98796.09
2022-11-18T05:34:27.904Z,98789.03
2022-11-18T05:35:29.997Z,98800.58
2022-11-18T05:36:32.318Z,98795.22
2022-11-18T05:37:34.936Z,98801.59
2022-11-18T05:38:37.065Z,98798.91
2022-11-18T05:39:39.037Z,98804.27
2022-11-18T05:40:42.407Z,98800.72
2022-11-18T05:41:44.404Z,98799.75
2022-11-18T05:42:47.533Z,98800.72
2022-11-18T05:43:49.713Z,98801.59
2022-11-18T05:44:57.823Z,98803.39
2022-11-18T05:45:56.355Z,98804.27
2022-11-18T05:46:58.524Z,98803.39
2022-11-18T05:48:00.641Z,98806.08
2022-11-18T05:49:02.812Z,98812.30
2022-11-18T05:50:06.436Z,98807.78
2022-11-18T05:51:08.554Z,98812.30
2022-11-18T05:52:10.639Z,98814.98
2022-11-18T05:53:13.199Z,98813.97
2022-11-18T05:54:16.898Z,98811.30
2022-11-18T05:55:19.022Z,98816.55
2022-11-18T05:57:40.787Z,98812.91
2022-11-18T05:58:43.454Z,98810.46
2022-11-18T05:59:46.225Z,98806.95
2022-11-18T06:00:51.675Z,98809.48
2022-11-18T06:01:57.595Z,98807.78
2022-11-18T06:02:59.780Z,98807.78
2022-11-18T06:04:04.278Z,98816.66
2022-11-18T06:05:08.364Z,98815.67
2022-11-18T06:06:10.719Z,98819.22
2022-11-18T06:07:22.973Z,98820.90
2022-11-18T06:08:29.297Z,98820.90
2022-11-18T06:09:33.128Z,98826.98
2022-11-18T06:10:35.583Z,98820.90
2022-11-18T06:11:43.781Z,98828.80
2022-11-18T06:12:47.631Z,98819.92
2022-11-18T06:13:54.427Z,98825.28
2022-11-18T06:16:23.656Z,98820.80
2022-11-18T06:17:29.019Z,98822.73
2022-11-18T06:18:31.385Z,98825.42
2022-11-18T06:19:34.268Z,98828.23
2022-11-18T06:20:37.301Z,98836.27
2022-11-18T06:21:39.660Z,98835.40
2022-11-18T06:22:46.350Z,98815.07
2022-11-18T06:23:46.107Z,98836.27
2022-11-18T06:24:48.113Z,98837.97
2022-11-18T06:25:50.195Z,98833.45
2022-11-18T06:26:52.291Z,98836.13
2022-11-18T06:27:55.747Z,98828.94
2022-11-18T06:28:58.895Z,98827.13
2022-11-18T06:30:01.465Z,98828.80
2022-11-18T06:31:04.961Z,98831.47
2022-11-18T06:32:07.093Z,98823.44
2022-11-18T06:33:09.653Z,98829.80
2022-11-18T06:34:11.645Z,98835.16
2022-11-18T06:35:13.669Z,98838.81
2022-11-18T06:36:15.846Z,98834.28
2022-11-18T06:37:18.948Z,98832.48
2022-11-18T06:38:24.950Z,98833.31
2022-11-18T06:39:27.196Z,98839.51
2022-11-18T06:40:34.513Z,98838.67
2022-11-18T06:41:34.624Z,98847.55
2022-11-18T06:42:37.093Z,98841.35
2022-11-18T06:43:39.725Z,98846.70
2022-11-18T06:44:42.001Z,98845.87
2022-11-18T06:45:45.420Z,98841.35
2022-11-18T06:46:48.418Z,98852.90
2022-11-18T06:47:50.450Z,98850.22
2022-11-18T06:48:53.427Z,98851.23
2022-11-18T06:49:55.573Z,98847.55
2022-11-18T06:50:58.741Z,98851.92
2022-11-18T06:52:00.866Z,98851.09
2022-11-18T06:53:02.933Z,98850.22
2022-11-18T06:54:10.384Z,98853.77
2022-11-18T06:55:09.426Z,98860.94
2022-11-18T06:56:13.131Z,98852.90
2022-11-18T06:57:15.480Z,98865.31
2022-11-18T06:58:17.591Z,98865.31
2022-11-18T06:59:20.548Z,98863.61
2022-11-18T07:00:22.885Z,98851.23
2022-11-18T07:01:27.003Z,98864.48
2022-11-18T07:02:29.390Z,98853.91
2022-11-18T07:03:32.071Z,98853.91
2022-11-18T07:04:34.056Z,98859.27
2022-11-18T07:05:36.519Z,98860.09
2022-11-18T07:06:39.703Z,98867.30
2022-11-18T07:07:42.572Z,98873.48
2022-11-18T07:08:45.333Z,98870.81
2022-11-18T07:09:47.601Z,98869.97
2022-11-18T07:10:53.036Z,98867.30
2022-11-18T07:11:55.060Z,98871.65
2022-11-18T07:12:57.161Z,98869.84
2022-11-18T07:13:59.127Z,98860.94
2022-11-18T07:15:01.689Z,98866.29
2022-11-18T07:16:05.435Z,98864.48
2022-11-18T07:17:07.504Z,98866.29
2022-11-18T07:18:09.626Z,98868.13
2022-11-18T07:19:13.376Z,98865.31
2022-11-18T07:20:15.853Z,98868.83
2022-11-18T07:21:19.725Z,98869.70
2022-11-18T07:22:22.374Z,98872.24
2022-11-18T07:23:24.472Z,98876.77
2022-11-18T07:24:26.452Z,98868.83
2022-11-18T07:25:28.485Z,98872.37
2022-11-18T07:26:30.777Z,98872.37
2022-11-18T07:27:32.762Z,98879.55
2022-11-18T07:28:34.759Z,98877.73
2022-11-18T07:29:36.726Z,98872.37
2022-11-18T07:30:39.869Z,98868.00
2022-11-18T07:31:41.889Z,98869.70
2022-11-18T07:32:47.036Z,98860.80
2022-11-18T07:33:49.352Z,98876.03
2022-11-18T07:34:52.391Z,98879.55
2022-11-18T07:35:54.624Z,98876.87
2022-11-18T07:36:57.461Z,98878.71
2022-11-18T07:38:00.468Z,98885.77
2022-11-18T07:39:04.687Z,98881.39
2022-11-18T07:40:08.898Z,98887.58
2022-11-18T07:41:12.939Z,98888.45
2022-11-18T07:42:15.164Z,98884.91
2022-11-18T07:43:17.159Z,98884.91
2022-11-18T07:44:19.614Z,98886.75
2022-11-18T07:45:21.883Z,98887.58
2022-11-18T07:46:29.530Z,98881.39
2022-11-18T07:47:34.013Z,98889.42
2022-11-18T07:48:36.209Z,98881.39
2022-11-18T07:49:38.746Z,98886.75
2022-11-18T07:50:46.897Z,98884.06
2022-11-18T07:51:45.903Z,98890.27
2022-11-18T07:52:49.023Z,98886.75
2022-11-18T07:53:52.329Z,98891.27
2022-11-18T07:54:54.360Z,98894.78
2022-11-18T07:55:57.458Z,98896.63
2022-11-18T07:56:59.644Z,98889.56
2022-11-18T07:58:01.740Z,98881.52
2022-11-18T07:59:04.291Z,98891.27
2022-11-18T08:00:09.254Z,98887.72
2022-11-18T08:01:16.485Z,98889.56
2022-11-18T08:02:18.843Z,98892.10
2022-11-18T08:03:27.121Z,98893.94
2022-11-18T08:04:29.360Z,98895.62
2022-11-18T08:05:44.466Z,98895.75
2022-11-18T08:06:47.256Z,98902.81
2022-11-18T08:07:51.699Z,98909.14
2022-11-18T08:08:53.815Z,98907.34
2022-11-18T08:09:56.932Z,98911.82
2022-11-18T08:11:01.097Z,98918.05
2022-11-18T08:12:04.619Z,98912.69
2022-11-18T08:13:06.749Z,98900.27
2022-11-18T08:14:09.981Z,98910.98
2022-11-18T08:15:13.067Z,98906.47
2022-11-18T08:16:16.957Z,98910.98
2022-11-18T08:17:19.499Z,98909.14
2022-11-18T08:18:22.904Z,98908.31
2022-11-18T08:19:25.320Z,98917.18
2022-11-18T08:20:27.410Z,98912.83
2022-11-18T08:21:30.853Z,98918.05
2022-11-18T08:22:33.152Z,98919.86
2022-11-18T08:23:41.532Z,98920.73
2022-11-18T08:24:41.047Z,98918.89
2022-11-18T08:25:43.869Z,98924.24
2022-11-18T08:26:46.118Z,98925.95
2022-11-18T08:27:48.198Z,98928.63
2022-11-18T08:28:50.439Z,98933.12
2022-11-18T08:29:53.473Z,98933.12
2022-11-18T08:30:55.621Z,98938.47
2022-11-18T08:31:58.921Z,98935.80
2022-11-18T08:33:01.171Z,98933.12
2022-11-18T08:34:05.650Z,98938.38
2022-11-18T08:35:44.939Z,98939.20
2022-11-18T08:37:09.310Z,98938.23
2022-11-18T08:38:11.658Z,98944.70
2022-11-18T08:39:14.291Z,98948.22
2022-11-18T08:40:16.996Z,98950.33
2022-11-18T08:41:23.770Z,98947.65
2022-11-18T08:42:29.941Z,98953.98
2022-11-18T08:43:30.708Z,98944.09
2022-11-18T08:44:32.878Z,98948.62
2022-11-18T08:45:36.950Z,98954.95
2022-11-18T08:46:41.583Z,98950.46
2022-11-18T08:47:44.788Z,98951.30
2022-11-18T08:48:47.883Z,98952.13
2022-11-18T08:49:52.551Z,98953.98
2022-11-18T08:50:54.779Z,98954.81
2022-11-18T08:51:56.856Z,98957.49
2022-11-18T08:52:59.450Z,98956.52
2022-11-18T08:54:01.503Z,98961.88
2022-11-18T08:55:05.229Z,98961.88
2022-11-18T08:56:12.011Z,98961.88
2022-11-18T08:57:14.191Z,98964.42
2022-11-18T08:58:16.383Z,98959.06
2022-11-18T08:59:19.341Z,98953.70
2022-11-18T09:00:22.753Z,98955.55
2022-11-18T09:01:26.172Z,98954.67
2022-11-18T09:02:28.427Z,98957.36
2022-11-18T09:03:32.086Z,98955.68
2022-11-18T09:04:34.971Z,98953.70
2022-11-18T09:05:37.212Z,98955.55
2022-11-18T09:06:39.914Z,98957.22
2022-11-18T09:07:43.252Z,98956.39
2022-11-18T09:08:46.181Z,98961.74
2022-11-18T09:09:48.831Z,98954.55
2022-11-18T09:10:50.934Z,98961.61
2022-11-18T09:11:53.001Z,98959.91
2022-11-18T09:13:07.115Z,98953.70
2022-11-18T09:15:14.525Z,98952.73
2022-11-18T09:16:16.379Z,98947.38
2022-11-18T09:17:20.671Z,98949.79
2022-11-18T09:18:23.004Z,98954.31
2022-11-18T09:20:31.053Z,98951.03
2022-11-18T09:21:36.849Z,98943.13
2022-11-18T09:22:37.762Z,98943.13
2022-11-18T09:23:40.295Z,98938.04
2022-11-18T09:24:42.385Z,98940.85
2022-11-18T09:25:44.969Z,98946.34
2022-11-18T09:26:47.136Z,98949.13
2022-11-18T09:27:49.760Z,98953.64
2022-11-18T09:28:54.631Z,98954.75
2022-11-18T09:29:56.804Z,98958.39
2022-11-18T09:31:02.191Z,98959.40
2022-11-18T09:32:04.724Z,98956.86
2022-11-18T09:33:07.592Z,98956.98
2022-11-18T09:34:10.693Z,98954.31
2022-11-18T09:35:13.086Z,98957.96
2022-11-18T09:36:20.776Z,98955.28
2022-11-18T09:37:22.921Z,98955.41
2022-11-18T09:38:25.085Z,98952.88
2022-11-18T09:39:27.172Z,98960.03
2022-11-18T09:40:30.172Z,98960.03
2022-11-18T09:41:45.060Z,98962.71
2022-11-18T09:44:23.704Z,98966.06
2022-11-18T09:45:32.901Z,98967.80
2022-11-18T09:47:01.648Z,98968.67
2022-11-18T09:49:27.101Z,98964.95
2022-11-18T09:53:12.923Z,98965.09
2022-11-18T09:54:24.069Z,98969.50
2022-11-18T09:55:26.814Z,98963.31
2022-11-18T09:56:29.236Z,98967.80
2022-11-18T09:58:48.161Z,98973.13
2022-11-18T09:59:50.356Z,98965.02
2022-11-18T10:00:53.399Z,98964.28
2022-11-18T10:03:18.738Z,98974.09
2022-11-18T10:04:21.352Z,98974.86
2022-11-18T10:05:25.557Z,98965.99
2022-11-18T10:06:27.805Z,98977.54
2022-11-18T10:07:49.437Z,98975.60
2022-11-18T13:03:05.662Z,99061.83
2022-11-18T13:04:11.056Z,99067.71
2022-11-18T13:05:21.336Z,99062.59
2022-11-18T13:06:29.927Z,99067.41
2022-11-18T13:07:33.208Z,99069.09
2022-11-18T13:08:35.565Z,99069.19
2022-11-18T13:09:37.729Z,99069.27
2022-11-18T13:10:55.893Z,99079.06
2022-11-18T13:12:03.295Z,99072.88
2022-11-18T13:13:06.710Z,99080.72
2022-11-18T13:14:21.950Z,99066.36
2022-11-18T13:15:25.655Z,99070.04
2022-11-18T13:16:27.873Z,99068.17
2022-11-18T13:17:32.029Z,99072.83
2022-11-18T13:18:46.928Z,99073.95
2022-11-18T13:21:09.150Z,99064.37
2022-11-18T13:22:15.045Z,99065.45
2022-11-18T13:23:31.015Z,99065.84
2022-11-18T13:24:37.023Z,99061.72
2022-11-18T13:25:39.543Z,99055.76
2022-11-18T13:26:42.653Z,99054.30
2022-11-18T13:28:00.577Z,99053.84
2022-11-18T13:29:18.801Z,99057.97
2022-11-18T13:30:21.269Z,99056.52
2022-11-18T13:31:33.113Z,99059.56
2022-11-18T13:32:35.903Z,99058.38
2022-11-18T13:33:38.196Z,99053.61
2022-11-18T13:35:56.444Z,99044.27
2022-11-18T13:36:59.112Z,99038.55
2022-11-18T13:38:01.409Z,99036.46
2022-11-18T13:39:05.336Z,99045.10
2022-11-18T13:41:28.534Z,99049.95
2022-11-18T13:42:32.017Z,99050.56
2022-11-18T13:43:34.366Z,99053.85
2022-11-18T13:44:37.767Z,99057.23
2022-11-18T13:45:40.368Z,99056.14
2022-11-18T13:46:42.567Z,99057.73
2022-11-18T13:47:52.537Z,99054.92
2022-11-18T13:48:56.364Z,99053.83
2022-11-18T13:50:07.908Z,99053.56
2022-11-18T13:51:11.171Z,99054.41
2022-11-18T13:52:14.624Z,99056.95
2022-11-18T13:53:39.607Z,99056.86
2022-11-18T13:54:41.734Z,99059.41
2022-11-18T13:55:49.939Z,99053.92
2022-11-18T14:00:07.106Z,99060.86
2022-11-18T14:01:14.751Z,99054.50
2022-11-18T14:02:17.092Z,99058.89
2022-11-18T14:03:30.308Z,99057.05
2022-11-18T14:04:32.878Z,99055.12
2022-11-18T14:05:34.974Z,99047.92
2022-11-18T14:06:38.358Z,99049.63
2022-11-18T14:07:40.890Z,99057.53
2022-11-18T14:08:43.248Z,99072.63
2022-11-18T14:09:53.122Z,99086.02
2022-11-18T14:10:55.663Z,99080.66
2022-11-18T14:12:03.949Z,99057.83
2022-11-18T14:13:25.437Z,99086.72
2022-11-18T14:15:44.188Z,99086.84
2022-11-18T14:16:46.814Z,99085.89
2022-11-18T14:19:03.327Z,99076.27
2022-11-18T14:20:12.659Z,99075.30
2022-11-18T14:21:15.680Z,99074.47
2022-11-18T14:22:22.507Z,99062.76
2022-11-18T14:24:40.525Z,99074.33
2022-11-18T14:25:43.316Z,99070.79
2022-11-18T14:26:45.605Z,99077.02
2022-11-18T14:29:19.147Z,99088.81
2022-11-18T14:30:28.392Z,99079.82
2022-11-18T14:31:30.926Z,99083.47
2022-11-18T14:32:32.901Z,99081.50
2022-11-18T14:33:37.284Z,99086.02
2022-11-18T14:39:56.255Z,99095.05
2022-11-18T14:41:00.000Z,99097.99
2022-11-18T14:42:02.055Z,99098.47
2022-11-18T14:43:04.954Z,99092.41
2022-11-18T14:44:07.479Z,99076.35
2022-11-18T14:45:10.975Z,99079.03
2022-11-18T14:47:28.068Z,99085.07
2022-11-18T14:48:32.604Z,99083.16
2022-11-18T14:49:36.447Z,99080.36
2022-11-18T14:50:38.555Z,99082.06
2022-11-18T14:51:41.405Z,99080.94
2022-11-18T14:52:43.835Z,99073.66
2022-11-18T14:53:49.453Z,99065.50
2022-11-18T14:54:52.031Z,99063.53
2022-11-18T14:55:56.715Z,99061.59
2022-11-18T14:57:04.266Z,99055.28
2022-11-18T14:58:10.104Z,99047.95
2022-11-18T14:59:14.280Z,99046.02
2022-11-18T15:00:17.996Z,99044.05
2022-11-18T15:01:22.863Z,99043.09
2022-11-18T15:02:25.457Z,99045.50
2022-11-18T15:03:27.807Z,99052.44
2022-11-18T15:04:31.930Z,99054.98
2022-11-18T15:05:34.390Z,99057.53
2022-11-18T15:06:36.917Z,99058.27
2022-11-18T15:07:40.130Z,99063.50
2022-11-18T15:08:44.609Z,99063.37
2022-11-18T15:09:47.217Z,99065.92
2022-11-18T15:10:50.828Z,99064.08
2022-11-18T15:11:53.964Z,99056.78
2022-11-18T15:12:55.998Z,99070.08
2022-11-18T15:13:57.958Z,99066.43
2022-11-18T15:15:00.046Z,99071.66
2022-11-18T15:16:25.301Z,99067.00
2022-11-18T15:17:27.693Z,99067.88
2022-11-18T15:18:30.179Z,99065.91
2022-11-18T15:19:32.446Z,99074.81
2022-11-18T15:20:34.688Z,99066.78
2022-11-18T15:21:36.780Z,99072.00
2022-11-18T15:22:38.845Z,99076.36
2022-11-18T15:23:41.015Z,99066.52
2022-11-18T15:24:43.533Z,99073.55
2022-11-18T15:25:46.496Z,99067.22
2022-11-18T15:26:48.624Z,99068.09
2022-11-18T15:27:50.771Z,99064.28
2022-11-18T15:28:54.109Z,99062.47
2022-11-18T15:30:01.512Z,99058.70
2022-11-18T15:31:01.953Z,99054.17
2022-11-18T15:32:04.671Z,99052.23
2022-11-18T15:33:06.831Z,99053.08
2022-11-18T15:34:08.965Z,99042.36
2022-11-18T15:35:12.520Z,99040.39
2022-11-18T15:36:17.405Z,99047.45
2022-11-18T15:37:20.441Z,99046.35
2022-11-18T15:38:24.273Z,99045.52
2022-11-18T15:39:27.382Z,99048.90
2022-11-18T15:40:29.557Z,99049.73
2022-11-18T15:41:32.374Z,99049.64
2022-11-18T15:42:42.472Z,99046.09
2022-11-18T15:43:41.345Z,99056.67
2022-11-18T15:44:44.575Z,99044.15
2022-11-18T15:45:47.205Z,99042.30
2022-11-18T15:46:50.778Z,99035.11
2022-11-18T15:47:52.934Z,99033.30
2022-11-18T15:48:57.807Z,99037.66
2022-11-18T15:50:01.268Z,99032.30
2022-11-18T15:51:08.862Z,99034.00
2022-11-18T15:52:10.745Z,99032.19
2022-11-18T15:53:12.777Z,99038.39
2022-11-18T15:54:15.110Z,99026.70
2022-11-18T15:55:17.096Z,99027.67
2022-11-18T15:56:29.476Z,99032.06
2022-11-18T15:57:31.609Z,99034.61
2022-11-18T15:58:36.164Z,99032.77
2022-11-18T15:59:38.564Z,99033.63
2022-11-18T16:00:44.752Z,99037.16
2022-11-18T16:01:46.920Z,99037.16
2022-11-18T16:02:49.369Z,99035.31
2022-11-18T16:03:51.532Z,99041.54
2022-11-18T16:04:53.513Z,99041.54
2022-11-18T16:05:55.490Z,99036.18
2022-11-18T16:06:57.585Z,99040.53
2022-11-18T16:07:59.647Z,99045.80
2022-11-18T16:09:02.782Z,99048.47
2022-11-18T16:10:08.650Z,99053.83
2022-11-18T16:11:14.827Z,99054.67
2022-11-18T16:12:17.377Z,99059.89
2022-11-18T16:13:20.588Z,99059.89
2022-11-18T16:14:23.933Z,99064.28
2022-11-18T16:15:27.239Z,99060.73
2022-11-18T16:16:29.900Z,99062.44
2022-11-18T16:17:32.515Z,99063.28
2022-11-18T16:18:40.526Z,99057.92
2022-11-18T16:19:39.691Z,99061.47
2022-11-18T16:20:42.536Z,99058.79
2022-11-18T16:21:46.533Z,99063.17
2022-11-18T16:22:49.050Z,99058.66
2022-11-18T16:25:09.572Z,99059.42
2022-11-18T16:26:12.782Z,99059.49
2022-11-18T16:27:15.425Z,99066.42
2022-11-18T16:28:17.502Z,99063.88
2022-11-18T16:29:21.094Z,99069.11
2022-11-18T16:30:23.575Z,99067.40
2022-11-18T16:31:26.933Z,99061.94
2022-11-18T16:32:29.166Z,99064.61
2022-11-18T16:33:31.728Z,99065.45
2022-11-18T16:34:34.044Z,99074.33
2022-11-18T16:35:36.693Z,99078.72
2022-11-18T16:36:40.642Z,99084.08
2022-11-18T16:37:43.324Z,99082.23
2022-11-18T16:38:45.299Z,99090.28
2022-11-18T16:39:47.285Z,99089.44
2022-11-18T16:42:10.142Z,99080.50
2022-11-18T16:43:12.107Z,99076.88
2022-11-18T16:44:16.545Z,99069.70
2022-11-18T16:45:19.089Z,99069.70
2022-11-18T16:46:21.283Z,99072.39
2022-11-18T16:47:24.674Z,99075.07
2022-11-18T16:49:40.091Z,99080.36